sensor_id;sensor_type;location;lat;lon;timestamp;pressure;altitude;pressure_sealevel;temperature;humidity
23619;BME280;18207;32.078;34.818;2023-10-31T00:01:36;100803.94;;;33.21;30.27
23619;BME280;18207;32.078;34.818;2023-10-31T00:04:06;100806.78;;;33.21;30.72
23619;BME280;18207;32.078;34.818;2023-10-31T00:06:37;100801.06;;;33.21;30.87
23619;BME280;18207;32.078;34.818;2023-10-31T00:09:07;100809.63;;;33.21;30.79
23619;BME280;18207;32.078;34.818;2023-10-31T00:11:41;100812.47;;;33.21;30.66
23619;BME280;18207;32.078;34.818;2023-10-31T00:14:12;100812.06;;;33.19;30.48
23619;BME280;18207;32.078;34.818;2023-10-31T00:16:58;100809.66;;;33.17;30.69
23619;BME280;18207;32.078;34.818;2023-10-31T00:19:28;100807.25;;;33.16;30.62
23619;BME280;18207;32.078;34.818;2023-10-31T00:21:59;100801.53;;;33.16;30.69
23619;BME280;18207;32.078;34.818;2023-10-31T00:24:29;100805.63;;;33.15;30.25
23619;BME280;18207;32.078;34.818;2023-10-31T00:27:00;100804.78;;;33.14;30.70
23619;BME280;18207;32.078;34.818;2023-10-31T00:29:29;100799.53;;;33.13;30.82
23619;BME280;18207;32.078;34.818;2023-10-31T00:31:59;100804.00;;;33.14;30.74
23619;BME280;18207;32.078;34.818;2023-10-31T00:34:31;100806.06;;;33.14;30.37
23619;BME280;18207;32.078;34.818;2023-10-31T00:37:05;100800.34;;;33.14;30.07
23619;BME280;18207;32.078;34.818;2023-10-31T00:39:35;100793.44;;;33.11;30.64
23619;BME280;18207;32.078;34.818;2023-10-31T00:42:05;100796.72;;;33.10;30.54
23619;BME280;18207;32.078;34.818;2023-10-31T00:44:35;100793.06;;;33.09;30.26
23619;BME280;18207;32.078;34.818;2023-10-31T00:47:05;100801.97;;;33.08;30.57
23619;BME280;18207;32.078;34.818;2023-10-31T00:49:35;100807.28;;;33.06;30.01
23619;BME280;18207;32.078;34.818;2023-10-31T00:52:06;100803.25;;;33.03;30.23
23619;BME280;18207;32.078;34.818;2023-10-31T00:54:49;100794.28;;;33.01;30.61
23619;BME280;18207;32.078;34.818;2023-10-31T00:57:19;100798.81;;;32.99;30.80
23619;BME280;18207;32.078;34.818;2023-10-31T00:59:49;100794.34;;;32.98;30.61
23619;BME280;18207;32.078;34.818;2023-10-31T01:02:21;100789.84;;;32.97;30.60
23619;BME280;18207;32.078;34.818;2023-10-31T01:04:51;100793.56;;;32.94;30.19
23619;BME280;18207;32.078;34.818;2023-10-31T01:07:31;100794.78;;;32.93;30.38
23619;BME280;18207;32.078;34.818;2023-10-31T01:10:01;100789.13;;;32.89;30.61
23619;BME280;18207;32.078;34.818;2023-10-31T01:12:31;100785.47;;;32.89;30.74
23619;BME280;18207;32.078;34.818;2023-10-31T01:15:01;100779.34;;;32.87;30.18
23619;BME280;18207;32.078;34.818;2023-10-31T01:17:30;100784.25;;;32.86;30.14
23619;BME280;18207;32.078;34.818;2023-10-31T01:20:00;100772.91;;;32.83;30.65
23619;BME280;18207;32.078;34.818;2023-10-31T01:22:46;100780.63;;;32.82;30.09
23619;BME280;18207;32.078;34.818;2023-10-31T01:25:16;100777.00;;;32.78;30.60
23619;BME280;18207;32.078;34.818;2023-10-31T01:27:49;100769.69;;;32.77;30.17
23619;BME280;18207;32.078;34.818;2023-10-31T01:30:19;100774.19;;;32.75;30.32
23619;BME280;18207;32.078;34.818;2023-10-31T01:32:49;100770.94;;;32.73;30.73
23619;BME280;18207;32.078;34.818;2023-10-31T01:35:19;100770.13;;;32.72;30.73
23619;BME280;18207;32.078;34.818;2023-10-31T01:37:50;100775.03;;;32.72;30.13
23619;BME280;18207;32.078;34.818;2023-10-31T01:40:20;100776.25;;;32.71;30.64
23619;BME280;18207;32.078;34.818;2023-10-31T01:42:50;100784.78;;;32.71;30.17
23619;BME280;18207;32.078;34.818;2023-10-31T01:45:20;100776.25;;;32.71;30.50
23619;BME280;18207;32.078;34.818;2023-10-31T01:47:49;100774.19;;;32.71;30.81
23619;BME280;18207;32.078;34.818;2023-10-31T01:50:33;100770.56;;;32.67;30.88
23619;BME280;18207;32.078;34.818;2023-10-31T01:53:04;100771.81;;;32.66;30.71
23619;BME280;18207;32.078;34.818;2023-10-31T01:55:34;100774.25;;;32.64;30.68
23619;BME280;18207;32.078;34.818;2023-10-31T01:58:04;100775.47;;;32.63;30.76
23619;BME280;18207;32.078;34.818;2023-10-31T02:00:33;100775.06;;;32.61;30.66
23619;BME280;18207;32.078;34.818;2023-10-31T02:03:05;100784.03;;;32.60;30.84
23619;BME280;18207;32.078;34.818;2023-10-31T02:05:35;100776.28;;;32.57;30.15
23619;BME280;18207;32.078;34.818;2023-10-31T02:08:06;100780.38;;;32.56;30.44
23619;BME280;18207;32.078;34.818;2023-10-31T02:10:36;100782.00;;;32.53;30.39
23619;BME280;18207;32.078;34.818;2023-10-31T02:13:17;100780.41;;;32.52;30.51
23619;BME280;18207;32.078;34.818;2023-10-31T02:15:47;100775.56;;;32.49;30.82
23619;BME280;18207;32.078;34.818;2023-10-31T02:18:18;100775.56;;;32.49;30.33
23619;BME280;18207;32.078;34.818;2023-10-31T02:21:08;100775.94;;;32.48;30.29
23619;BME280;18207;32.078;34.818;2023-10-31T02:23:39;100769.84;;;32.46;30.62
23619;BME280;18207;32.078;34.818;2023-10-31T02:26:09;100776.81;;;32.45;30.83
23619;BME280;18207;32.078;34.818;2023-10-31T02:28:38;100769.50;;;32.44;30.84
23619;BME280;18207;32.078;34.818;2023-10-31T02:31:17;100780.03;;;32.43;31.09
23619;BME280;18207;32.078;34.818;2023-10-31T02:33:47;100781.28;;;32.42;30.74
23619;BME280;18207;32.078;34.818;2023-10-31T02:36:17;100784.13;;;32.42;30.42
23619;BME280;18207;32.078;34.818;2023-10-31T02:38:49;100791.84;;;32.42;30.38
23619;BME280;18207;32.078;34.818;2023-10-31T02:41:18;100781.28;;;32.42;30.71
23619;BME280;18207;32.078;34.818;2023-10-31T02:43:48;100784.13;;;32.42;30.70
23619;BME280;18207;32.078;34.818;2023-10-31T02:46:18;100791.03;;;32.41;30.67
23619;BME280;18207;32.078;34.818;2023-10-31T02:48:47;100781.28;;;32.42;31.10
23619;BME280;18207;32.078;34.818;2023-10-31T02:51:18;100782.88;;;32.43;30.77
23619;BME280;18207;32.078;34.818;2023-10-31T02:53:49;100782.09;;;32.43;31.21
23619;BME280;18207;32.078;34.818;2023-10-31T02:56:20;100786.56;;;32.44;30.53
23619;BME280;18207;32.078;34.818;2023-10-31T02:58:49;100788.59;;;32.43;31.22
23619;BME280;18207;32.078;34.818;2023-10-31T03:01:29;100790.22;;;32.44;31.15
23619;BME280;18207;32.078;34.818;2023-10-31T03:03:58;100789.41;;;32.44;30.85
23619;BME280;18207;32.078;34.818;2023-10-31T03:06:28;100788.59;;;32.43;30.59
23619;BME280;18207;32.078;34.818;2023-10-31T03:08:59;100800.38;;;32.45;30.65
23619;BME280;18207;32.078;34.818;2023-10-31T03:11:29;100791.84;;;32.45;31.17
23619;BME280;18207;32.078;34.818;2023-10-31T03:14:00;100797.09;;;32.47;31.31
23619;BME280;18207;32.078;34.818;2023-10-31T03:16:30;100788.56;;;32.47;30.70
23619;BME280;18207;32.078;34.818;2023-10-31T03:19:10;100791.00;;;32.48;30.89
23619;BME280;18207;32.078;34.818;2023-10-31T03:21:40;100792.63;;;32.46;31.31
23619;BME280;18207;32.078;34.818;2023-10-31T03:24:12;100796.31;;;32.46;30.76
23619;BME280;18207;32.078;34.818;2023-10-31T03:26:41;100789.41;;;32.44;30.83
23619;BME280;18207;32.078;34.818;2023-10-31T03:29:12;100793.47;;;32.43;31.27
23619;BME280;18207;32.078;34.818;2023-10-31T03:31:41;100796.31;;;32.43;31.30
23619;BME280;18207;32.078;34.818;2023-10-31T03:34:14;100792.28;;;32.40;30.96
23619;BME280;18207;32.078;34.818;2023-10-31T03:36:43;100802.84;;;32.40;31.31
23619;BME280;18207;32.078;34.818;2023-10-31T03:39:15;100797.56;;;32.38;31.02
23619;BME280;18207;32.078;34.818;2023-10-31T03:41:45;100799.19;;;32.36;31.46
23619;BME280;18207;32.078;34.818;2023-10-31T03:44:15;100792.69;;;32.35;31.34
23619;BME280;18207;32.078;34.818;2023-10-31T03:46:46;100793.50;;;32.36;31.33
23619;BME280;18207;32.078;34.818;2023-10-31T03:49:16;100802.47;;;32.34;31.30
23619;BME280;18207;32.078;34.818;2023-10-31T03:51:46;100804.09;;;32.32;31.34
23619;BME280;18207;32.078;34.818;2023-10-31T03:54:19;100796.78;;;32.31;30.88
23619;BME280;18207;32.078;34.818;2023-10-31T03:56:49;100802.91;;;32.29;31.26
23619;BME280;18207;32.078;34.818;2023-10-31T03:59:19;100806.97;;;32.28;30.94
23619;BME280;18207;32.078;34.818;2023-10-31T04:01:48;100804.13;;;32.28;31.17
23619;BME280;18207;32.078;34.818;2023-10-31T04:04:18;100806.97;;;32.28;31.58
23619;BME280;18207;32.078;34.818;2023-10-31T04:06:48;100808.19;;;32.27;31.09
23619;BME280;18207;32.078;34.818;2023-10-31T04:09:19;100813.88;;;32.27;31.42
23619;BME280;18207;32.078;34.818;2023-10-31T04:11:48;100812.25;;;32.26;31.16
23619;BME280;18207;32.078;34.818;2023-10-31T04:14:18;100815.91;;;32.27;31.76
23619;BME280;18207;32.078;34.818;2023-10-31T04:16:48;100815.91;;;32.27;31.14
23619;BME280;18207;32.078;34.818;2023-10-31T04:19:18;100817.13;;;32.26;31.04
23619;BME280;18207;32.078;34.818;2023-10-31T04:21:48;100823.63;;;32.26;31.17
23619;BME280;18207;32.078;34.818;2023-10-31T04:24:19;100828.50;;;32.26;31.32
23619;BME280;18207;32.078;34.818;2023-10-31T04:26:48;100832.59;;;32.25;31.43
23619;BME280;18207;32.078;34.818;2023-10-31T04:29:18;100839.88;;;32.26;31.66
23619;BME280;18207;32.078;34.818;2023-10-31T04:31:48;100831.34;;;32.26;31.38
23619;BME280;18207;32.078;34.818;2023-10-31T04:34:17;100835.03;;;32.26;31.82
23619;BME280;18207;32.078;34.818;2023-10-31T04:36:47;100845.97;;;32.28;31.83
23619;BME280;18207;32.078;34.818;2023-10-31T04:39:18;100844.38;;;32.30;31.88
23619;BME280;18207;32.078;34.818;2023-10-31T04:41:48;100843.50;;;32.33;31.80
23619;BME280;18207;32.078;34.818;2023-10-31T04:44:18;100846.34;;;32.37;31.79
23619;BME280;18207;32.078;34.818;2023-10-31T04:46:48;100845.09;;;32.41;31.58
23619;BME280;18207;32.078;34.818;2023-10-31T04:49:17;100848.31;;;32.47;32.04
23619;BME280;18207;32.078;34.818;2023-10-31T04:51:49;100849.53;;;32.53;31.34
23619;BME280;18207;32.078;34.818;2023-10-31T04:54:20;100853.16;;;32.60;31.29
23619;BME280;18207;32.078;34.818;2023-10-31T04:56:50;100860.06;;;32.66;31.95
23619;BME280;18207;32.078;34.818;2023-10-31T04:59:19;100856.38;;;32.73;31.34
23619;BME280;18207;32.078;34.818;2023-10-31T05:01:49;100869.34;;;32.77;31.62
23619;BME280;18207;32.078;34.818;2023-10-31T05:04:20;100857.50;;;32.82;31.25
23619;BME280;18207;32.078;34.818;2023-10-31T05:06:50;100860.31;;;32.89;31.38
23619;BME280;18207;32.078;34.818;2023-10-31T05:09:21;100874.50;;;32.96;31.35
23619;BME280;18207;32.078;34.818;2023-10-31T05:11:51;100867.13;;;33.02;31.39
23619;BME280;18207;32.078;34.818;2023-10-31T05:14:21;100870.00;;;33.09;31.58
23619;BME280;18207;32.078;34.818;2023-10-31T05:16:51;100871.16;;;33.15;31.34
23619;BME280;18207;32.078;34.818;2023-10-31T05:19:20;100877.63;;;33.22;31.20
23619;BME280;18207;32.078;34.818;2023-10-31T05:21:50;100879.97;;;33.31;31.75
23619;BME280;18207;32.078;34.818;2023-10-31T05:24:24;100884.81;;;33.37;31.24
23619;BME280;18207;32.078;34.818;2023-10-31T05:27:04;100883.09;;;33.47;31.76
23619;BME280;18207;32.078;34.818;2023-10-31T05:29:35;100880.19;;;33.54;31.86
23619;BME280;18207;32.078;34.818;2023-10-31T05:32:05;100881.75;;;33.62;31.65
23619;BME280;18207;32.078;34.818;2023-10-31T05:34:35;100883.31;;;33.70;31.93
23619;BME280;18207;32.078;34.818;2023-10-31T05:37:14;100884.44;;;33.79;31.18
23619;BME280;18207;32.078;34.818;2023-10-31T05:39:45;100878.63;;;33.90;31.26
23619;BME280;18207;32.078;34.818;2023-10-31T05:42:15;100883.03;;;33.98;31.53
23619;BME280;18207;32.078;34.818;2023-10-31T05:44:45;100882.53;;;34.06;31.06
23619;BME280;18207;32.078;34.818;2023-10-31T05:47:15;100877.16;;;34.15;31.68
23619;BME280;18207;32.078;34.818;2023-10-31T05:49:45;100875.03;;;34.22;31.04
23619;BME280;18207;32.078;34.818;2023-10-31T05:52:15;100879.41;;;34.30;31.55
23619;BME280;18207;32.078;34.818;2023-10-31T05:54:46;100874.44;;;34.38;31.21
23619;BME280;18207;32.078;34.818;2023-10-31T05:57:16;100871.03;;;34.46;31.20
23619;BME280;18207;32.078;34.818;2023-10-31T05:59:46;100874.63;;;34.54;31.52
23619;BME280;18207;32.078;34.818;2023-10-31T06:02:15;100875.38;;;34.61;30.99
23619;BME280;18207;32.078;34.818;2023-10-31T06:04:45;100874.03;;;34.69;31.39
23619;BME280;18207;32.078;34.818;2023-10-31T06:07:15;100871.88;;;34.77;31.36
23619;BME280;18207;32.078;34.818;2023-10-31T06:09:46;100879.13;;;34.85;31.26
23619;BME280;18207;32.078;34.818;2023-10-31T06:12:16;100879.00;;;34.92;31.56
23619;BME280;18207;32.078;34.818;2023-10-31T06:14:46;100877.69;;;34.99;30.96
23619;BME280;18207;32.078;34.818;2023-10-31T06:17:19;100870.19;;;35.09;31.49
23619;BME280;18207;32.078;34.818;2023-10-31T06:19:50;100879.03;;;35.18;31.49
23619;BME280;18207;32.078;34.818;2023-10-31T06:22:19;100874.81;;;35.26;30.86
23619;BME280;18207;32.078;34.818;2023-10-31T06:24:50;100873.47;;;35.34;30.85
23619;BME280;18207;32.078;34.818;2023-10-31T06:27:20;100874.97;;;35.42;30.82
23619;BME280;18207;32.078;34.818;2023-10-31T06:29:50;100866.25;;;35.49;31.08
23619;BME280;18207;32.078;34.818;2023-10-31T06:32:38;100867.00;;;35.56;30.76
23619;BME280;18207;32.078;34.818;2023-10-31T06:35:09;100860.34;;;35.63;31.25
23619;BME280;18207;32.078;34.818;2023-10-31T06:37:38;100855.72;;;35.69;31.12
23619;BME280;18207;32.078;34.818;2023-10-31T06:40:11;100868.66;;;35.77;30.80
23619;BME280;18207;32.078;34.818;2023-10-31T06:42:49;100863.69;;;35.81;30.42
23619;BME280;18207;32.078;34.818;2023-10-31T06:45:19;100861.53;;;35.84;30.76
23619;BME280;18207;32.078;34.818;2023-10-31T06:47:49;100857.34;;;35.89;30.33
23619;BME280;18207;32.078;34.818;2023-10-31T06:50:19;100856.88;;;35.94;30.84
23619;BME280;18207;32.078;34.818;2023-10-31T06:52:51;100850.66;;;35.99;30.46
23619;BME280;18207;32.078;34.818;2023-10-31T06:55:22;100843.19;;;36.05;30.77
23619;BME280;18207;32.078;34.818;2023-10-31T06:57:52;100842.66;;;36.10;30.50
23619;BME280;18207;32.078;34.818;2023-10-31T07:00:21;100838.06;;;36.16;30.85
23619;BME280;18207;32.078;34.818;2023-10-31T07:02:52;100844.88;;;36.22;30.04
23619;BME280;18207;32.078;34.818;2023-10-31T07:05:21;100844.38;;;36.27;30.04
23619;BME280;18207;32.078;34.818;2023-10-31T07:07:51;100835.25;;;36.32;30.02
23619;BME280;18207;32.078;34.818;2023-10-31T07:10:22;100825.72;;;36.38;30.41
23619;BME280;18207;32.078;34.818;2023-10-31T07:12:52;100823.97;;;36.44;30.52
23619;BME280;18207;32.078;34.818;2023-10-31T07:15:22;100827.94;;;36.50;30.00
23619;BME280;18207;32.078;34.818;2023-10-31T07:17:52;100825.34;;;36.56;30.46
23619;BME280;18207;32.078;34.818;2023-10-31T07:20:21;100824.81;;;36.61;30.09
23619;BME280;18207;32.078;34.818;2023-10-31T07:22:51;100828.34;;;36.68;30.20
23619;BME280;18207;32.078;34.818;2023-10-31T07:25:22;100824.50;;;36.75;30.32
23619;BME280;18207;32.078;34.818;2023-10-31T07:27:52;100819.47;;;36.78;30.25
23619;BME280;18207;32.078;34.818;2023-10-31T07:30:22;100819.75;;;36.84;30.13
23619;BME280;18207;32.078;34.818;2023-10-31T07:32:55;100822.53;;;36.87;29.62
23619;BME280;18207;32.078;34.818;2023-10-31T07:35:25;100820.88;;;36.90;29.96
23619;BME280;18207;32.078;34.818;2023-10-31T07:37:54;100822.84;;;36.93;29.78
23619;BME280;18207;32.078;34.818;2023-10-31T07:40:26;100815.44;;;36.95;29.41
23619;BME280;18207;32.078;34.818;2023-10-31T07:42:56;100808.78;;;36.98;29.89
23619;BME280;18207;32.078;34.818;2023-10-31T07:45:26;100807.44;;;37.03;29.62
23619;BME280;18207;32.078;34.818;2023-10-31T07:47:58;100807.34;;;37.06;29.33
23619;BME280;18207;32.078;34.818;2023-10-31T07:50:31;100800.72;;;37.09;29.64
23619;BME280;18207;32.078;34.818;2023-10-31T07:53:00;100803.06;;;37.14;29.70
23619;BME280;18207;32.078;34.818;2023-10-31T07:55:32;100804.59;;;37.19;29.43
23619;BME280;18207;32.078;34.818;2023-10-31T07:58:04;100799.91;;;37.25;29.52
23619;BME280;18207;32.078;34.818;2023-10-31T08:00:38;100805.56;;;37.28;29.27
23619;BME280;18207;32.078;34.818;2023-10-31T08:03:08;100801.34;;;37.33;29.38
23619;BME280;18207;32.078;34.818;2023-10-31T08:05:38;100800.03;;;37.37;29.47
23619;BME280;18207;32.078;34.818;2023-10-31T08:08:08;100790.91;;;37.42;29.40
23619;BME280;18207;32.078;34.818;2023-10-31T08:10:39;100796.06;;;37.47;28.99
23619;BME280;18207;32.078;34.818;2023-10-31T08:13:12;100792.66;;;37.52;29.30
23619;BME280;18207;32.078;34.818;2023-10-31T08:15:41;100787.63;;;37.56;29.45
23619;BME280;18207;32.078;34.818;2023-10-31T08:18:11;100783.84;;;37.59;29.36
23619;BME280;18207;32.078;34.818;2023-10-31T08:20:41;100781.72;;;37.63;29.37
23619;BME280;18207;32.078;34.818;2023-10-31T08:23:11;100782.50;;;37.64;28.98
23619;BME280;18207;32.078;34.818;2023-10-31T08:25:42;100780.00;;;37.66;29.20
23619;BME280;18207;32.078;34.818;2023-10-31T08:28:12;100778.75;;;37.67;29.18
23619;BME280;18207;32.078;34.818;2023-10-31T08:30:42;100776.66;;;37.67;29.24
23619;BME280;18207;32.078;34.818;2023-10-31T08:33:12;100776.31;;;37.65;28.61
23619;BME280;18207;32.078;34.818;2023-10-31T08:35:41;100773.91;;;37.64;29.14
23619;BME280;18207;32.078;34.818;2023-10-31T08:38:12;100776.41;;;37.62;28.52
23619;BME280;18207;32.078;34.818;2023-10-31T08:40:56;100770.75;;;37.58;28.75
23619;BME280;18207;32.078;34.818;2023-10-31T08:43:25;100760.19;;;37.55;28.87
23619;BME280;18207;32.078;34.818;2023-10-31T08:45:55;100764.78;;;37.53;28.47
23619;BME280;18207;32.078;34.818;2023-10-31T08:48:25;100760.75;;;37.50;28.67
23619;BME280;18207;32.078;34.818;2023-10-31T08:50:54;100764.50;;;37.47;28.57
23619;BME280;18207;32.078;34.818;2023-10-31T08:53:24;100749.47;;;37.43;28.44
23619;BME280;18207;32.078;34.818;2023-10-31T08:55:55;100754.03;;;37.41;28.80
23619;BME280;18207;32.078;34.818;2023-10-31T08:58:25;100751.25;;;37.37;29.10
23619;BME280;18207;32.078;34.818;2023-10-31T09:00:55;100750.13;;;37.35;28.41
23619;BME280;18207;32.078;34.818;2023-10-31T09:03:24;100742.03;;;37.30;28.96
23619;BME280;18207;32.078;34.818;2023-10-31T09:05:54;100748.19;;;37.28;29.06
23619;BME280;18207;32.078;34.818;2023-10-31T09:08:24;100741.78;;;37.24;28.67
23619;BME280;18207;32.078;34.818;2023-10-31T09:10:56;100735.69;;;37.22;28.64
23619;BME280;18207;32.078;34.818;2023-10-31T09:13:25;100741.50;;;37.19;28.66
23619;BME280;18207;32.078;34.818;2023-10-31T09:15:55;100738.75;;;37.15;28.73
23619;BME280;18207;32.078;34.818;2023-10-31T09:18:24;100734.69;;;37.13;28.33
23619;BME280;18207;32.078;34.818;2023-10-31T09:20:54;100727.81;;;37.10;28.97
23619;BME280;18207;32.078;34.818;2023-10-31T09:23:23;100717.22;;;37.07;28.35
23619;BME280;18207;32.078;34.818;2023-10-31T09:25:55;100722.16;;;37.07;28.62
23619;BME280;18207;32.078;34.818;2023-10-31T09:28:25;100727.53;;;37.05;28.63
23619;BME280;18207;32.078;34.818;2023-10-31T09:30:54;100710.44;;;37.01;28.31
23619;BME280;18207;32.078;34.818;2023-10-31T09:33:24;100702.72;;;36.98;28.40
23619;BME280;18207;32.078;34.818;2023-10-31T09:35:54;100703.19;;;36.97;28.21
23619;BME280;18207;32.078;34.818;2023-10-31T09:38:23;100693.84;;;36.93;28.79
23619;BME280;18207;32.078;34.818;2023-10-31T09:40:55;100702.13;;;36.91;28.86
23619;BME280;18207;32.078;34.818;2023-10-31T09:43:24;100704.22;;;36.87;28.91
23619;BME280;18207;32.078;34.818;2023-10-31T09:45:54;100692.41;;;36.85;28.59
23619;BME280;18207;32.078;34.818;2023-10-31T09:48:25;100679.41;;;36.80;28.95
23619;BME280;18207;32.078;34.818;2023-10-31T09:50:55;100681.91;;;36.78;28.37
23619;BME280;18207;32.078;34.818;2023-10-31T09:53:27;100680.75;;;36.76;28.20
23619;BME280;18207;32.078;34.818;2023-10-31T09:56:00;100675.13;;;36.73;28.65
23619;BME280;18207;32.078;34.818;2023-10-31T09:58:30;100670.28;;;36.70;28.55
23619;BME280;18207;32.078;34.818;2023-10-31T10:00:59;100662.16;;;36.68;28.38
23619;BME280;18207;32.078;34.818;2023-10-31T10:03:29;100661.78;;;36.66;29.01
23619;BME280;18207;32.078;34.818;2023-10-31T10:06:01;100652.03;;;36.64;28.56
23619;BME280;18207;32.078;34.818;2023-10-31T10:08:31;100648.81;;;36.62;28.82
23619;BME280;18207;32.078;34.818;2023-10-31T10:11:03;100644.31;;;36.61;28.95
23619;BME280;18207;32.078;34.818;2023-10-31T10:13:33;100642.34;;;36.58;28.77
23619;BME280;18207;32.078;34.818;2023-10-31T10:16:03;100642.81;;;36.56;28.39
23619;BME280;18207;32.078;34.818;2023-10-31T10:18:35;100638.78;;;36.54;28.41
23619;BME280;18207;32.078;34.818;2023-10-31T10:21:09;100637.19;;;36.53;28.80
23619;BME280;18207;32.078;34.818;2023-10-31T10:23:38;100631.53;;;36.49;28.39
23619;BME280;18207;32.078;34.818;2023-10-31T10:26:10;100627.06;;;36.48;28.92
23619;BME280;18207;32.078;34.818;2023-10-31T10:28:40;100630.81;;;36.45;28.57
23619;BME280;18207;32.078;34.818;2023-10-31T10:31:09;100620.22;;;36.42;28.58
23619;BME280;18207;32.078;34.818;2023-10-31T10:33:43;100625.59;;;36.40;28.42
23619;BME280;18207;32.078;34.818;2023-10-31T10:36:12;100608.06;;;36.38;28.83
23619;BME280;18207;32.078;34.818;2023-10-31T10:38:46;100617.09;;;36.37;28.40
23619;BME280;18207;32.078;34.818;2023-10-31T10:41:21;100609.75;;;36.36;28.50
23619;BME280;18207;32.078;34.818;2023-10-31T10:43:55;100610.19;;;36.34;28.35
23619;BME280;18207;32.078;34.818;2023-10-31T10:46:25;100606.97;;;36.32;29.02
23619;BME280;18207;32.078;34.818;2023-10-31T10:48:58;100607.41;;;36.31;28.40
23619;BME280;18207;32.078;34.818;2023-10-31T10:51:42;100607.88;;;36.29;28.75
23619;BME280;18207;32.078;34.818;2023-10-31T10:54:19;100609.59;;;36.27;28.87
23619;BME280;18207;32.078;34.818;2023-10-31T10:57:03;100609.22;;;36.25;28.44
23619;BME280;18207;32.078;34.818;2023-10-31T10:59:41;100611.25;;;36.24;28.38
23619;BME280;18207;32.078;34.818;2023-10-31T11:02:12;100605.63;;;36.21;28.82
23619;BME280;18207;32.078;34.818;2023-10-31T11:04:43;100604.38;;;36.22;28.51
23619;BME280;18207;32.078;34.818;2023-10-31T11:07:13;100600.72;;;36.21;28.67
23619;BME280;18207;32.078;34.818;2023-10-31T11:09:45;100604.84;;;36.20;28.81
23619;BME280;18207;32.078;34.818;2023-10-31T11:12:20;100601.16;;;36.20;28.98
23619;BME280;18207;32.078;34.818;2023-10-31T11:14:51;100600.78;;;36.18;29.11
23619;BME280;18207;32.078;34.818;2023-10-31T11:17:26;100607.34;;;36.18;28.65
23619;BME280;18207;32.078;34.818;2023-10-31T11:19:58;100608.22;;;36.15;29.31
23619;BME280;18207;32.078;34.818;2023-10-31T11:22:38;100610.28;;;36.15;29.36
23619;BME280;18207;32.078;34.818;2023-10-31T11:25:10;100611.16;;;36.12;28.98
23619;BME280;18207;32.078;34.818;2023-10-31T11:27:57;100615.28;;;36.11;28.80
23619;BME280;18207;32.078;34.818;2023-10-31T11:30:41;100611.25;;;36.08;29.36
23619;BME280;18207;32.078;34.818;2023-10-31T11:33:19;100612.13;;;36.05;29.24
23619;BME280;18207;32.078;34.818;2023-10-31T11:35:59;100605.63;;;36.05;29.12
23619;BME280;18207;32.078;34.818;2023-10-31T11:38:34;100607.31;;;36.02;29.62
23619;BME280;18207;32.078;34.818;2023-10-31T11:41:05;100599.97;;;36.01;29.50
23619;BME280;18207;32.078;34.818;2023-10-31T11:43:51;100603.63;;;36.02;29.82
23619;BME280;18207;32.078;34.818;2023-10-31T11:46:24;100613.09;;;35.99;29.85
23619;BME280;18207;32.078;34.818;2023-10-31T11:48:55;100614.34;;;35.98;29.67
23619;BME280;18207;32.078;34.818;2023-10-31T11:51:26;100603.31;;;35.96;29.81
23619;BME280;18207;32.078;34.818;2023-10-31T11:53:57;100603.78;;;35.95;29.92
23619;BME280;18207;32.078;34.818;2023-10-31T11:56:26;100605.03;;;35.94;29.19
23619;BME280;18207;32.078;34.818;2023-10-31T11:59:00;100599.75;;;35.92;29.82
23619;BME280;18207;32.078;34.818;2023-10-31T12:01:31;100600.63;;;35.89;29.30
23619;BME280;18207;32.078;34.818;2023-10-31T12:04:00;100596.16;;;35.88;29.96
23619;BME280;18207;32.078;34.818;2023-10-31T12:06:35;100604.38;;;35.86;29.81
23619;BME280;18207;32.078;34.818;2023-10-31T12:09:05;100604.00;;;35.84;29.38
23619;BME280;18207;32.078;34.818;2023-10-31T12:11:44;100612.25;;;35.83;30.09
23619;BME280;18207;32.078;34.818;2023-10-31T12:14:19;100605.34;;;35.80;30.07
23619;BME280;18207;32.078;34.818;2023-10-31T12:16:49;100609.91;;;35.78;29.81
23619;BME280;18207;32.078;34.818;2023-10-31T12:19:21;100610.34;;;35.76;30.23
23619;BME280;18207;32.078;34.818;2023-10-31T12:21:51;100615.72;;;35.74;29.67
23619;BME280;18207;32.078;34.818;2023-10-31T12:24:20;100607.59;;;35.73;29.89
23619;BME280;18207;32.078;34.818;2023-10-31T12:26:50;100622.31;;;35.71;30.18
23619;BME280;18207;32.078;34.818;2023-10-31T12:29:22;100621.50;;;35.71;29.59
23619;BME280;18207;32.078;34.818;2023-10-31T12:31:53;100624.00;;;35.69;30.08
23619;BME280;18207;32.078;34.818;2023-10-31T12:34:26;100620.78;;;35.67;30.01
23619;BME280;18207;32.078;34.818;2023-10-31T12:36:56;100620.41;;;35.65;29.80
23619;BME280;18207;32.078;34.818;2023-10-31T12:39:28;100621.69;;;35.64;30.14
23619;BME280;18207;32.078;34.818;2023-10-31T12:41:58;100614.75;;;35.61;30.17
23619;BME280;18207;32.078;34.818;2023-10-31T12:44:31;100611.53;;;35.59;29.75
23619;BME280;18207;32.078;34.818;2023-10-31T12:47:07;100623.44;;;35.58;30.02
23619;BME280;18207;32.078;34.818;2023-10-31T12:49:36;100621.44;;;35.55;29.71
23619;BME280;18207;32.078;34.818;2023-10-31T12:52:06;100618.25;;;35.53;29.80
23619;BME280;18207;32.078;34.818;2023-10-31T12:54:37;100619.47;;;35.52;30.35
23619;BME280;18207;32.078;34.818;2023-10-31T12:57:08;100616.66;;;35.48;29.86
23619;BME280;18207;32.078;34.818;2023-10-31T12:59:40;100615.84;;;35.48;29.76
23619;BME280;18207;32.078;34.818;2023-10-31T13:02:09;100604.50;;;35.44;29.78